Skip Navigation Links
NOAA logo - Click to go to the NOAA homepage
NOAA's National Weather Service
Alaska Aviation Weather Unit
  NWS logo - Click to go to the NWS homepage
Left Navbar Graphic     09 AKDT = 17 GMT

   
NOAA is celebrating 200 years of science, service, and stewardship. Visit the NOAA 200th celebration Web site to learn more.
USA.gov is the U.S. Government's official Web portal to all Federal, state and local government Web resources and services.
Facebook
NWS on Facebook

Important Change Regarding the AAWU Web Presence

 

Over the last several months, the AAWU has been working to navigate its webpages to a nationally supported server. Security, as well as other needs, have necessitated the change.  In the process, we have made an effort to enhance the functionality of our website, as well as some of our products. As of June 20, 2017, aawu.arh.noaa.gov will be discontinued. The new AAWU web address is weather.gov/aawu. It is now live and will run in-parallel with the old site until it is discontinued. Please send any feedback or questions regarding the new webpages to nws.ar.aawu.webauthors@noaa.gov.  Thank you for your patience during this time of transition.
AAWU Home :: Display TAF Add Bookmark
METAR PPIZ 271256Z AUTO 12006KT 10SM FEW042 OVC060 M01/M03 A2992 RMK AO2
     SLP136 T10111028 FZRANO TSNO=

METAR PPIZ 271356Z AUTO 13008KT 10SM FEW050 OVC060 01/M02 A2992 RMK AO2
     SLP138 T00061022 FZRANO TSNO=

METAR PPIZ 271456Z AUTO 13007KT 10SM BKN042 OVC060 01/M02 A2993 RMK AO2
     SLP141 T00111017 53006 FZRANO TSNO=

METAR PPIZ 271556Z AUTO 12008KT 10SM FEW060 02/M02 A2994 RMK AO2 SLP144
     T00171017 FZRANO TSNO=

METAR PPIZ 271656Z AUTO 11005KT 10SM BKN044 BKN055 OVC070 03/M01 A2995
     RMK AO2 SLP147 T00331006 TSNO=


NOAA's National Weather Service
Alaska Aviation Weather Unit
6930 Sand Lake Road
Anchorage, AK 99502-1845
Disclaimer
Credits
Glossary
Privacy Policy
About Us
Career Opportunities
Contact AAWU Internet Services Site last modified: April, 17th 2012